Flight Track Log - Related Links

Times and Time Zones

All times are in EDT time to prevent confusion due to time zone crossing. See the FLG3422 flight status page for this flight to view local times or setup timezone preferences in your user account.

Time Position Orientation Groundspeed Altitude Reporting Facility
EDT Latitude Longitude Course Direction KTS MPH feet Rate Location/Type
Mon 11:35:28 AM 41.3917 -81.8867 249° West 166 191 2,100  Level Cleveland Center
Mon 11:36:48 AM 41.3700 -81.9611 284° West 194 223 4,700 2,057 Climbing Cleveland Center
Mon 11:37:48 AM 41.3856 -82.0472 302° West 235 270 6,900 2,400 Climbing Cleveland Center
Mon 11:38:48 AM 41.4261 -82.1339 285° West 257 296 9,500 2,000 Climbing Cleveland Center
Mon 11:39:48 AM 41.4456 -82.2342 281° West 274 315 10,900 700 Climbing Cleveland Center
Mon 11:40:48 AM 41.4625 -82.3536 288° West 311 358 10,900  Level Cleveland Center
Mon 11:41:48 AM 41.4881 -82.4597 342° North 310 357 10,900  Level Cleveland Center
Mon 11:42:48 AM 41.5769 -82.4983 336° Northwest 298 343 10,900  Level Cleveland Center
Mon 11:43:36 AM 41.6492 -82.5422 296° West 346 398 10,900 500 Level Cleveland Center
Mon 11:44:48 AM 41.6911 -82.6575 292° West 320 368 11,900 455 Climbing Cleveland Center
Mon 11:45:48 AM 41.7225 -82.7642 314° West 310 357 11,900  Level Cleveland Center
Mon 11:46:32 AM 41.7731 -82.8356 318° Northwest 312 359 11,900  Level Cleveland Center
Mon 11:47:33 AM 41.8383 -82.9158 319° Northwest 317 365 11,900 47 Level Cleveland Center
Mon 11:48:40 AM 41.9114 -83.0022 317° Northwest 294 338 12,000 47 Climbing Cleveland Center
Mon 11:49:40 AM 41.9683 -83.0742 320° Northwest 284 327 12,000 -472 Level Cleveland Center
Mon 11:50:47 AM 42.0253 -83.1381 316° Northwest 241 277 11,000 -469 Descending Cleveland Center
Mon 11:51:48 AM 42.0739 -83.2017 North 249 287 11,000 -689 Level Cleveland Center
Mon 11:54:51 AM 42.2875 -83.1597 27° Northeast 273 314 8,200 -1,008 Descending Cleveland Center
Mon 11:55:52 AM 42.3531 -83.1147 22° Northeast 262 302 6,900 -1,091 Descending Cleveland Center
Mon 11:56:52 AM 42.4164 -83.0806 301° West 230 265 6,000 -567 Descending Cleveland Center
Mon 11:57:59 AM 42.4481 -83.1522 285° West 174 200 5,700 -689 Descending Cleveland Center
Mon 11:58:54 AM 42.4575 -83.2006 203° Southwest 148 170 4,600 -879 Descending Cleveland Center
Mon 11:59:55 AM 42.4172 -83.2242 209° Southwest 162 186 4,000 -328 Descending Cleveland Center
Mon 12:01:02 PM 42.3708 -83.2589 209° Southwest 168 193 3,900 -90 Descending Cleveland Center

Login

Don't have an account? Register now (free) for customized features, flight alerts, and more!